sensor_id;sensor_type;location;lat;lon;timestamp;P1;durP1;ratioP1;P2;durP2;ratioP2
76380;SDS011;65202;52.520;10.528;2024-03-08T00:00:12;40.58;;;21.85;;
76380;SDS011;65202;52.520;10.528;2024-03-08T00:02:44;48.75;;;23.38;;
76380;SDS011;65202;52.520;10.528;2024-03-08T00:05:13;44.28;;;22.60;;
76380;SDS011;65202;52.520;10.528;2024-03-08T00:07:41;47.90;;;23.45;;
76380;SDS011;65202;52.520;10.528;2024-03-08T00:10:10;45.90;;;22.73;;
76380;SDS011;65202;52.520;10.528;2024-03-08T00:12:42;42.13;;;23.10;;
76380;SDS011;65202;52.520;10.528;2024-03-08T00:15:14;41.90;;;22.20;;
76380;SDS011;65202;52.520;10.528;2024-03-08T00:17:45;44.00;;;22.77;;
76380;SDS011;65202;52.520;10.528;2024-03-08T00:20:19;42.13;;;21.05;;
76380;SDS011;65202;52.520;10.528;2024-03-08T00:22:46;44.58;;;22.83;;
76380;SDS011;65202;52.520;10.528;2024-03-08T00:25:14;38.45;;;21.27;;
76380;SDS011;65202;52.520;10.528;2024-03-08T00:27:42;43.22;;;22.70;;
76380;SDS011;65202;52.520;10.528;2024-03-08T00:30:10;40.28;;;21.50;;
76380;SDS011;65202;52.520;10.528;2024-03-08T00:32:41;44.60;;;22.67;;
76380;SDS011;65202;52.520;10.528;2024-03-08T00:35:08;43.67;;;21.88;;
76380;SDS011;65202;52.520;10.528;2024-03-08T00:37:36;40.63;;;21.30;;
76380;SDS011;65202;52.520;10.528;2024-03-08T00:40:04;45.38;;;22.85;;
76380;SDS011;65202;52.520;10.528;2024-03-08T00:42:34;40.25;;;22.02;;
76380;SDS011;65202;52.520;10.528;2024-03-08T00:45:01;48.40;;;21.60;;
76380;SDS011;65202;52.520;10.528;2024-03-08T00:47:30;42.67;;;21.90;;
76380;SDS011;65202;52.520;10.528;2024-03-08T00:49:57;46.95;;;22.85;;
76380;SDS011;65202;52.520;10.528;2024-03-08T00:52:25;45.53;;;23.38;;
76380;SDS011;65202;52.520;10.528;2024-03-08T00:54:52;50.08;;;24.25;;
76380;SDS011;65202;52.520;10.528;2024-03-08T00:57:20;43.88;;;22.65;;
76380;SDS011;65202;52.520;10.528;2024-03-08T00:59:49;44.72;;;23.02;;
76380;SDS011;65202;52.520;10.528;2024-03-08T01:02:16;43.38;;;22.92;;
76380;SDS011;65202;52.520;10.528;2024-03-08T01:04:46;47.85;;;22.63;;
76380;SDS011;65202;52.520;10.528;2024-03-08T01:07:14;41.03;;;21.73;;
76380;SDS011;65202;52.520;10.528;2024-03-08T01:09:42;40.53;;;21.88;;
76380;SDS011;65202;52.520;10.528;2024-03-08T01:12:10;43.05;;;22.73;;
76380;SDS011;65202;52.520;10.528;2024-03-08T01:14:37;41.40;;;22.60;;
76380;SDS011;65202;52.520;10.528;2024-03-08T01:17:05;43.10;;;22.95;;
76380;SDS011;65202;52.520;10.528;2024-03-08T01:19:32;43.05;;;22.33;;
76380;SDS011;65202;52.520;10.528;2024-03-08T01:22:00;42.38;;;23.67;;
76380;SDS011;65202;52.520;10.528;2024-03-08T01:24:28;44.65;;;23.73;;
76380;SDS011;65202;52.520;10.528;2024-03-08T01:26:55;43.88;;;22.38;;
76380;SDS011;65202;52.520;10.528;2024-03-08T01:29:23;49.17;;;23.35;;
76380;SDS011;65202;52.520;10.528;2024-03-08T01:31:50;43.85;;;22.70;;
76380;SDS011;65202;52.520;10.528;2024-03-08T01:34:19;44.35;;;22.83;;
76380;SDS011;65202;52.520;10.528;2024-03-08T01:36:47;44.33;;;21.73;;
76380;SDS011;65202;52.520;10.528;2024-03-08T01:39:14;42.65;;;23.38;;
76380;SDS011;65202;52.520;10.528;2024-03-08T01:41:42;44.45;;;22.27;;
76380;SDS011;65202;52.520;10.528;2024-03-08T01:44:09;45.63;;;22.52;;
76380;SDS011;65202;52.520;10.528;2024-03-08T01:46:37;43.58;;;22.58;;
76380;SDS011;65202;52.520;10.528;2024-03-08T01:49:05;48.25;;;22.35;;
76380;SDS011;65202;52.520;10.528;2024-03-08T01:51:32;44.60;;;22.63;;
76380;SDS011;65202;52.520;10.528;2024-03-08T01:54:00;44.40;;;22.05;;
76380;SDS011;65202;52.520;10.528;2024-03-08T01:56:29;41.90;;;22.90;;
76380;SDS011;65202;52.520;10.528;2024-03-08T01:58:59;44.50;;;22.83;;
76380;SDS011;65202;52.520;10.528;2024-03-08T02:01:27;42.45;;;23.23;;
76380;SDS011;65202;52.520;10.528;2024-03-08T02:03:56;47.78;;;23.52;;
76380;SDS011;65202;52.520;10.528;2024-03-08T02:06:24;45.13;;;23.85;;
76380;SDS011;65202;52.520;10.528;2024-03-08T02:08:51;44.70;;;23.60;;
76380;SDS011;65202;52.520;10.528;2024-03-08T02:11:19;43.75;;;23.48;;
76380;SDS011;65202;52.520;10.528;2024-03-08T02:13:48;44.33;;;23.00;;
76380;SDS011;65202;52.520;10.528;2024-03-08T02:16:22;46.88;;;24.73;;
76380;SDS011;65202;52.520;10.528;2024-03-08T02:18:49;45.90;;;23.75;;
76380;SDS011;65202;52.520;10.528;2024-03-08T02:21:17;50.05;;;23.63;;
76380;SDS011;65202;52.520;10.528;2024-03-08T02:23:46;50.42;;;24.45;;
76380;SDS011;65202;52.520;10.528;2024-03-08T02:26:13;48.75;;;24.00;;
76380;SDS011;65202;52.520;10.528;2024-03-08T02:28:41;48.38;;;25.13;;
76380;SDS011;65202;52.520;10.528;2024-03-08T02:31:10;44.50;;;23.63;;
76380;SDS011;65202;52.520;10.528;2024-03-08T02:33:38;45.42;;;24.27;;
76380;SDS011;65202;52.520;10.528;2024-03-08T02:36:06;45.75;;;23.70;;
76380;SDS011;65202;52.520;10.528;2024-03-08T02:38:34;45.92;;;24.08;;
76380;SDS011;65202;52.520;10.528;2024-03-08T02:41:01;49.00;;;24.65;;
76380;SDS011;65202;52.520;10.528;2024-03-08T02:43:31;49.70;;;23.77;;
76380;SDS011;65202;52.520;10.528;2024-03-08T02:45:58;47.90;;;25.13;;
76380;SDS011;65202;52.520;10.528;2024-03-08T02:48:28;47.88;;;23.83;;
76380;SDS011;65202;52.520;10.528;2024-03-08T02:50:56;48.35;;;23.83;;
76380;SDS011;65202;52.520;10.528;2024-03-08T02:53:23;47.58;;;23.35;;
76380;SDS011;65202;52.520;10.528;2024-03-08T02:55:51;45.55;;;24.20;;
76380;SDS011;65202;52.520;10.528;2024-03-08T02:58:19;51.88;;;25.95;;
76380;SDS011;65202;52.520;10.528;2024-03-08T03:00:46;51.90;;;25.42;;
76380;SDS011;65202;52.520;10.528;2024-03-08T03:03:13;46.42;;;24.90;;
76380;SDS011;65202;52.520;10.528;2024-03-08T03:05:41;49.30;;;25.67;;
76380;SDS011;65202;52.520;10.528;2024-03-08T03:08:14;51.22;;;25.13;;
76380;SDS011;65202;52.520;10.528;2024-03-08T03:10:43;52.03;;;25.88;;
76380;SDS011;65202;52.520;10.528;2024-03-08T03:13:11;44.80;;;25.05;;
76380;SDS011;65202;52.520;10.528;2024-03-08T03:15:39;51.55;;;25.92;;
76380;SDS011;65202;52.520;10.528;2024-03-08T03:18:09;47.80;;;25.02;;
76380;SDS011;65202;52.520;10.528;2024-03-08T03:20:36;50.88;;;25.65;;
76380;SDS011;65202;52.520;10.528;2024-03-08T03:23:08;52.13;;;25.27;;
76380;SDS011;65202;52.520;10.528;2024-03-08T03:25:40;45.03;;;25.13;;
76380;SDS011;65202;52.520;10.528;2024-03-08T03:28:08;55.50;;;25.40;;
76380;SDS011;65202;52.520;10.528;2024-03-08T03:30:38;48.15;;;25.30;;
76380;SDS011;65202;52.520;10.528;2024-03-08T03:33:06;57.38;;;27.15;;
76380;SDS011;65202;52.520;10.528;2024-03-08T03:35:35;53.17;;;26.85;;
76380;SDS011;65202;52.520;10.528;2024-03-08T03:38:03;52.50;;;27.08;;
76380;SDS011;65202;52.520;10.528;2024-03-08T03:40:36;53.13;;;27.10;;
76380;SDS011;65202;52.520;10.528;2024-03-08T03:43:05;54.10;;;27.45;;
76380;SDS011;65202;52.520;10.528;2024-03-08T03:45:33;54.17;;;27.17;;
76380;SDS011;65202;52.520;10.528;2024-03-08T03:48:05;53.22;;;27.38;;
76380;SDS011;65202;52.520;10.528;2024-03-08T03:50:36;57.03;;;27.75;;
76380;SDS011;65202;52.520;10.528;2024-03-08T03:53:04;55.35;;;27.70;;
76380;SDS011;65202;52.520;10.528;2024-03-08T03:55:36;53.78;;;27.60;;
76380;SDS011;65202;52.520;10.528;2024-03-08T03:58:05;58.00;;;28.77;;
76380;SDS011;65202;52.520;10.528;2024-03-08T04:00:32;56.47;;;28.10;;
76380;SDS011;65202;52.520;10.528;2024-03-08T04:03:00;53.25;;;26.98;;
76380;SDS011;65202;52.520;10.528;2024-03-08T04:05:29;55.83;;;28.30;;
76380;SDS011;65202;52.520;10.528;2024-03-08T04:07:57;54.03;;;28.20;;
76380;SDS011;65202;52.520;10.528;2024-03-08T04:10:24;58.92;;;28.70;;
76380;SDS011;65202;52.520;10.528;2024-03-08T04:12:51;56.00;;;27.73;;
76380;SDS011;65202;52.520;10.528;2024-03-08T04:15:19;55.08;;;28.25;;
76380;SDS011;65202;52.520;10.528;2024-03-08T04:17:47;53.05;;;27.55;;
76380;SDS011;65202;52.520;10.528;2024-03-08T04:20:15;56.90;;;29.48;;
76380;SDS011;65202;52.520;10.528;2024-03-08T04:22:44;55.20;;;28.55;;
76380;SDS011;65202;52.520;10.528;2024-03-08T04:25:14;55.17;;;29.00;;
76380;SDS011;65202;52.520;10.528;2024-03-08T04:27:42;55.72;;;28.27;;
76380;SDS011;65202;52.520;10.528;2024-03-08T04:30:09;57.75;;;29.27;;
76380;SDS011;65202;52.520;10.528;2024-03-08T04:32:38;56.00;;;28.50;;
76380;SDS011;65202;52.520;10.528;2024-03-08T04:35:05;55.30;;;28.58;;
76380;SDS011;65202;52.520;10.528;2024-03-08T04:37:33;54.95;;;29.52;;
76380;SDS011;65202;52.520;10.528;2024-03-08T04:40:01;62.33;;;30.25;;
76380;SDS011;65202;52.520;10.528;2024-03-08T04:42:28;56.22;;;30.35;;
76380;SDS011;65202;52.520;10.528;2024-03-08T04:44:59;57.08;;;29.02;;
76380;SDS011;65202;52.520;10.528;2024-03-08T04:47:27;59.80;;;30.75;;
76380;SDS011;65202;52.520;10.528;2024-03-08T04:49:54;63.88;;;30.05;;
76380;SDS011;65202;52.520;10.528;2024-03-08T04:52:23;58.92;;;30.05;;
76380;SDS011;65202;52.520;10.528;2024-03-08T04:54:51;61.88;;;30.80;;
76380;SDS011;65202;52.520;10.528;2024-03-08T04:57:18;63.05;;;31.27;;
76380;SDS011;65202;52.520;10.528;2024-03-08T04:59:46;55.92;;;29.38;;
76380;SDS011;65202;52.520;10.528;2024-03-08T05:02:14;60.83;;;29.67;;
76380;SDS011;65202;52.520;10.528;2024-03-08T05:04:41;60.15;;;30.10;;
76380;SDS011;65202;52.520;10.528;2024-03-08T05:07:09;56.72;;;29.83;;
76380;SDS011;65202;52.520;10.528;2024-03-08T05:09:37;58.67;;;29.85;;
76380;SDS011;65202;52.520;10.528;2024-03-08T05:12:04;60.78;;;29.83;;
76380;SDS011;65202;52.520;10.528;2024-03-08T05:14:32;57.65;;;30.10;;
76380;SDS011;65202;52.520;10.528;2024-03-08T05:17:02;59.05;;;30.48;;
76380;SDS011;65202;52.520;10.528;2024-03-08T05:19:29;60.00;;;31.88;;
76380;SDS011;65202;52.520;10.528;2024-03-08T05:22:01;57.63;;;29.60;;
76380;SDS011;65202;52.520;10.528;2024-03-08T05:24:30;59.80;;;30.85;;
76380;SDS011;65202;52.520;10.528;2024-03-08T05:26:58;59.25;;;30.00;;
76380;SDS011;65202;52.520;10.528;2024-03-08T05:29:27;56.78;;;30.83;;
76380;SDS011;65202;52.520;10.528;2024-03-08T05:31:56;59.05;;;30.45;;
76380;SDS011;65202;52.520;10.528;2024-03-08T05:34:25;58.47;;;30.95;;
76380;SDS011;65202;52.520;10.528;2024-03-08T05:36:53;56.47;;;30.48;;
76380;SDS011;65202;52.520;10.528;2024-03-08T05:39:22;61.42;;;30.50;;
76380;SDS011;65202;52.520;10.528;2024-03-08T05:41:50;56.63;;;30.98;;
76380;SDS011;65202;52.520;10.528;2024-03-08T05:44:18;57.20;;;29.73;;
76380;SDS011;65202;52.520;10.528;2024-03-08T05:46:45;55.30;;;29.58;;
76380;SDS011;65202;52.520;10.528;2024-03-08T05:49:15;58.67;;;31.15;;
76380;SDS011;65202;52.520;10.528;2024-03-08T05:51:43;57.05;;;30.42;;
76380;SDS011;65202;52.520;10.528;2024-03-08T05:54:11;53.35;;;29.83;;
76380;SDS011;65202;52.520;10.528;2024-03-08T05:56:43;66.13;;;31.58;;
76380;SDS011;65202;52.520;10.528;2024-03-08T05:59:12;61.22;;;31.20;;
76380;SDS011;65202;52.520;10.528;2024-03-08T06:01:40;56.72;;;30.80;;
76380;SDS011;65202;52.520;10.528;2024-03-08T06:04:09;56.08;;;30.35;;
76380;SDS011;65202;52.520;10.528;2024-03-08T06:06:40;60.83;;;31.45;;
76380;SDS011;65202;52.520;10.528;2024-03-08T06:09:08;61.53;;;31.92;;
76380;SDS011;65202;52.520;10.528;2024-03-08T06:11:39;63.85;;;30.55;;
76380;SDS011;65202;52.520;10.528;2024-03-08T06:14:08;62.38;;;33.08;;
76380;SDS011;65202;52.520;10.528;2024-03-08T06:16:35;67.10;;;32.50;;
76380;SDS011;65202;52.520;10.528;2024-03-08T06:19:03;57.28;;;31.58;;
76380;SDS011;65202;52.520;10.528;2024-03-08T06:21:31;60.53;;;31.65;;
76380;SDS011;65202;52.520;10.528;2024-03-08T06:23:59;93.43;;;46.30;;
76380;SDS011;65202;52.520;10.528;2024-03-08T06:26:26;59.45;;;31.58;;
76380;SDS011;65202;52.520;10.528;2024-03-08T06:28:58;63.00;;;31.60;;
76380;SDS011;65202;52.520;10.528;2024-03-08T06:31:25;62.05;;;31.65;;
76380;SDS011;65202;52.520;10.528;2024-03-08T06:33:53;62.03;;;31.77;;
76380;SDS011;65202;52.520;10.528;2024-03-08T06:36:25;58.78;;;32.60;;
76380;SDS011;65202;52.520;10.528;2024-03-08T06:38:52;62.20;;;33.10;;
76380;SDS011;65202;52.520;10.528;2024-03-08T06:41:20;58.88;;;30.80;;
76380;SDS011;65202;52.520;10.528;2024-03-08T06:43:47;56.17;;;31.30;;
76380;SDS011;65202;52.520;10.528;2024-03-08T06:46:16;58.28;;;31.15;;
76380;SDS011;65202;52.520;10.528;2024-03-08T06:48:44;57.60;;;30.90;;
76380;SDS011;65202;52.520;10.528;2024-03-08T06:51:16;55.45;;;31.20;;
76380;SDS011;65202;52.520;10.528;2024-03-08T06:53:45;57.92;;;31.02;;
76380;SDS011;65202;52.520;10.528;2024-03-08T06:56:12;56.60;;;31.60;;
76380;SDS011;65202;52.520;10.528;2024-03-08T06:58:40;60.13;;;32.65;;
76380;SDS011;65202;52.520;10.528;2024-03-08T07:01:08;57.55;;;30.77;;
76380;SDS011;65202;52.520;10.528;2024-03-08T07:03:41;63.25;;;35.55;;
76380;SDS011;65202;52.520;10.528;2024-03-08T07:06:11;58.90;;;34.10;;
76380;SDS011;65202;52.520;10.528;2024-03-08T07:08:38;51.05;;;30.77;;
76380;SDS011;65202;52.520;10.528;2024-03-08T07:11:06;50.45;;;30.33;;
76380;SDS011;65202;52.520;10.528;2024-03-08T07:13:34;51.95;;;31.63;;
76380;SDS011;65202;52.520;10.528;2024-03-08T07:16:01;49.00;;;30.98;;
76380;SDS011;65202;52.520;10.528;2024-03-08T07:18:29;57.15;;;31.40;;
76380;SDS011;65202;52.520;10.528;2024-03-08T07:20:57;52.05;;;31.40;;
76380;SDS011;65202;52.520;10.528;2024-03-08T07:23:25;52.15;;;31.63;;
76380;SDS011;65202;52.520;10.528;2024-03-08T07:26:28;60.37;;;33.27;;
76380;SDS011;65202;52.520;10.528;2024-03-08T07:28:56;50.90;;;31.17;;
76380;SDS011;65202;52.520;10.528;2024-03-08T07:31:26;53.83;;;31.83;;
76380;SDS011;65202;52.520;10.528;2024-03-08T07:33:53;59.28;;;32.67;;
76380;SDS011;65202;52.520;10.528;2024-03-08T07:36:21;55.63;;;32.65;;
76380;SDS011;65202;52.520;10.528;2024-03-08T07:38:49;53.40;;;31.83;;
76380;SDS011;65202;52.520;10.528;2024-03-08T07:41:16;52.30;;;31.63;;
76380;SDS011;65202;52.520;10.528;2024-03-08T07:43:44;45.72;;;30.50;;
76380;SDS011;65202;52.520;10.528;2024-03-08T07:46:11;47.08;;;30.52;;
76380;SDS011;65202;52.520;10.528;2024-03-08T07:48:40;47.47;;;30.42;;
76380;SDS011;65202;52.520;10.528;2024-03-08T07:51:08;45.97;;;30.63;;
76380;SDS011;65202;52.520;10.528;2024-03-08T07:53:36;43.88;;;31.30;;
76380;SDS011;65202;52.520;10.528;2024-03-08T07:56:05;45.55;;;30.30;;
76380;SDS011;65202;52.520;10.528;2024-03-08T07:58:33;40.42;;;29.08;;
76380;SDS011;65202;52.520;10.528;2024-03-08T08:01:02;41.08;;;29.70;;
76380;SDS011;65202;52.520;10.528;2024-03-08T08:03:29;41.85;;;28.88;;
76380;SDS011;65202;52.520;10.528;2024-03-08T08:05:57;38.25;;;28.80;;
76380;SDS011;65202;52.520;10.528;2024-03-08T08:08:24;40.83;;;29.73;;
76380;SDS011;65202;52.520;10.528;2024-03-08T08:10:53;40.53;;;28.98;;
76380;SDS011;65202;52.520;10.528;2024-03-08T08:13:21;41.15;;;29.05;;
76380;SDS011;65202;52.520;10.528;2024-03-08T08:15:49;37.05;;;28.75;;
76380;SDS011;65202;52.520;10.528;2024-03-08T08:18:17;39.22;;;30.80;;
76380;SDS011;65202;52.520;10.528;2024-03-08T08:20:46;38.30;;;29.60;;
76380;SDS011;65202;52.520;10.528;2024-03-08T08:23:14;36.03;;;27.63;;
76380;SDS011;65202;52.520;10.528;2024-03-08T08:25:42;38.17;;;28.65;;
76380;SDS011;65202;52.520;10.528;2024-03-08T08:28:09;37.92;;;28.77;;
76380;SDS011;65202;52.520;10.528;2024-03-08T08:30:37;36.35;;;28.13;;
76380;SDS011;65202;52.520;10.528;2024-03-08T08:33:04;35.80;;;28.45;;
76380;SDS011;65202;52.520;10.528;2024-03-08T08:35:32;38.35;;;28.73;;
76380;SDS011;65202;52.520;10.528;2024-03-08T08:38:00;38.47;;;28.48;;
76380;SDS011;65202;52.520;10.528;2024-03-08T08:40:28;39.97;;;27.95;;
76380;SDS011;65202;52.520;10.528;2024-03-08T08:42:57;40.63;;;28.83;;
76380;SDS011;65202;52.520;10.528;2024-03-08T08:45:25;37.13;;;28.50;;
76380;SDS011;65202;52.520;10.528;2024-03-08T08:47:53;38.88;;;28.45;;
76380;SDS011;65202;52.520;10.528;2024-03-08T08:50:22;37.00;;;28.50;;
76380;SDS011;65202;52.520;10.528;2024-03-08T08:52:51;39.47;;;28.90;;
76380;SDS011;65202;52.520;10.528;2024-03-08T08:55:19;38.92;;;28.27;;
76380;SDS011;65202;52.520;10.528;2024-03-08T08:57:53;36.63;;;28.80;;
76380;SDS011;65202;52.520;10.528;2024-03-08T09:00:21;41.90;;;28.98;;
76380;SDS011;65202;52.520;10.528;2024-03-08T09:02:51;36.60;;;27.92;;
76380;SDS011;65202;52.520;10.528;2024-03-08T09:05:19;38.13;;;29.02;;
76380;SDS011;65202;52.520;10.528;2024-03-08T09:07:48;37.85;;;28.88;;
76380;SDS011;65202;52.520;10.528;2024-03-08T09:10:18;39.47;;;29.38;;
76380;SDS011;65202;52.520;10.528;2024-03-08T09:12:45;38.33;;;29.23;;
76380;SDS011;65202;52.520;10.528;2024-03-08T09:15:13;41.53;;;30.35;;
76380;SDS011;65202;52.520;10.528;2024-03-08T09:17:41;38.33;;;30.05;;
76380;SDS011;65202;52.520;10.528;2024-03-08T09:20:09;43.00;;;29.98;;
76380;SDS011;65202;52.520;10.528;2024-03-08T09:22:44;39.65;;;30.17;;
76380;SDS011;65202;52.520;10.528;2024-03-08T09:25:12;42.03;;;30.45;;
76380;SDS011;65202;52.520;10.528;2024-03-08T09:27:39;41.20;;;31.33;;
76380;SDS011;65202;52.520;10.528;2024-03-08T09:30:08;43.45;;;31.80;;
76380;SDS011;65202;52.520;10.528;2024-03-08T09:32:38;41.10;;;30.42;;
76380;SDS011;65202;52.520;10.528;2024-03-08T09:35:05;43.20;;;31.85;;
76380;SDS011;65202;52.520;10.528;2024-03-08T09:37:36;40.65;;;31.25;;
76380;SDS011;65202;52.520;10.528;2024-03-08T09:40:04;40.72;;;32.00;;
76380;SDS011;65202;52.520;10.528;2024-03-08T09:42:37;40.63;;;30.92;;
76380;SDS011;65202;52.520;10.528;2024-03-08T09:45:11;41.33;;;31.58;;
76380;SDS011;65202;52.520;10.528;2024-03-08T09:47:44;46.92;;;32.65;;
76380;SDS011;65202;52.520;10.528;2024-03-08T09:50:12;46.17;;;32.33;;
76380;SDS011;65202;52.520;10.528;2024-03-08T09:52:40;40.95;;;31.75;;
76380;SDS011;65202;52.520;10.528;2024-03-08T09:55:07;45.45;;;32.33;;
76380;SDS011;65202;52.520;10.528;2024-03-08T09:57:39;45.50;;;33.93;;
76380;SDS011;65202;52.520;10.528;2024-03-08T10:00:07;44.08;;;31.80;;
76380;SDS011;65202;52.520;10.528;2024-03-08T10:02:45;48.42;;;33.50;;
76380;SDS011;65202;52.520;10.528;2024-03-08T10:05:13;45.38;;;33.38;;
76380;SDS011;65202;52.520;10.528;2024-03-08T10:07:41;46.20;;;32.72;;
76380;SDS011;65202;52.520;10.528;2024-03-08T10:10:08;47.60;;;34.13;;
76380;SDS011;65202;52.520;10.528;2024-03-08T10:12:39;44.42;;;33.92;;
76380;SDS011;65202;52.520;10.528;2024-03-08T10:15:07;50.33;;;34.97;;
76380;SDS011;65202;52.520;10.528;2024-03-08T10:17:35;50.08;;;34.50;;
76380;SDS011;65202;52.520;10.528;2024-03-08T10:20:03;49.35;;;33.63;;
76380;SDS011;65202;52.520;10.528;2024-03-08T10:22:41;46.83;;;32.85;;
76380;SDS011;65202;52.520;10.528;2024-03-08T10:25:24;46.22;;;32.45;;
76380;SDS011;65202;52.520;10.528;2024-03-08T10:27:52;47.03;;;32.58;;
76380;SDS011;65202;52.520;10.528;2024-03-08T10:30:19;46.78;;;32.78;;
76380;SDS011;65202;52.520;10.528;2024-03-08T10:32:49;47.15;;;32.85;;
76380;SDS011;65202;52.520;10.528;2024-03-08T10:35:16;47.72;;;32.10;;
76380;SDS011;65202;52.520;10.528;2024-03-08T10:37:48;45.17;;;31.17;;
76380;SDS011;65202;52.520;10.528;2024-03-08T10:40:25;46.67;;;31.98;;
76380;SDS011;65202;52.520;10.528;2024-03-08T10:42:58;48.60;;;31.33;;
76380;SDS011;65202;52.520;10.528;2024-03-08T10:45:36;46.83;;;31.50;;
76380;SDS011;65202;52.520;10.528;2024-03-08T10:51:05;49.90;;;30.67;;
76380;SDS011;65202;52.520;10.528;2024-03-08T10:53:34;43.53;;;30.85;;
76380;SDS011;65202;52.520;10.528;2024-03-08T10:56:04;43.22;;;29.80;;
76380;SDS011;65202;52.520;10.528;2024-03-08T10:58:32;46.42;;;31.70;;
76380;SDS011;65202;52.520;10.528;2024-03-08T11:01:02;42.70;;;28.77;;
76380;SDS011;65202;52.520;10.528;2024-03-08T11:06:08;49.45;;;30.80;;
76380;SDS011;65202;52.520;10.528;2024-03-08T11:08:37;47.50;;;30.02;;
76380;SDS011;65202;52.520;10.528;2024-03-08T11:11:06;48.50;;;31.42;;
76380;SDS011;65202;52.520;10.528;2024-03-08T11:13:59;48.10;;;31.52;;
76380;SDS011;65202;52.520;10.528;2024-03-08T11:21:37;45.10;;;28.23;;
76380;SDS011;65202;52.520;10.528;2024-03-08T11:26:40;45.67;;;28.80;;
76380;SDS011;65202;52.520;10.528;2024-03-08T11:32:14;48.63;;;29.85;;
76380;SDS011;65202;52.520;10.528;2024-03-08T11:34:46;46.80;;;29.23;;
76380;SDS011;65202;52.520;10.528;2024-03-08T11:37:16;41.63;;;27.77;;
76380;SDS011;65202;52.520;10.528;2024-03-08T11:39:48;46.53;;;29.45;;
76380;SDS011;65202;52.520;10.528;2024-03-08T11:42:31;45.38;;;29.33;;
76380;SDS011;65202;52.520;10.528;2024-03-08T11:44:58;41.33;;;27.52;;
76380;SDS011;65202;52.520;10.528;2024-03-08T11:47:26;40.80;;;27.60;;
76380;SDS011;65202;52.520;10.528;2024-03-08T11:49:54;44.00;;;27.38;;
76380;SDS011;65202;52.520;10.528;2024-03-08T11:52:22;44.55;;;27.73;;
76380;SDS011;65202;52.520;10.528;2024-03-08T11:54:52;38.97;;;26.45;;
76380;SDS011;65202;52.520;10.528;2024-03-08T11:57:22;42.78;;;27.08;;
76380;SDS011;65202;52.520;10.528;2024-03-08T11:59:51;39.38;;;26.70;;
76380;SDS011;65202;52.520;10.528;2024-03-08T12:02:23;41.33;;;26.77;;
76380;SDS011;65202;52.520;10.528;2024-03-08T12:04:58;41.83;;;26.63;;
76380;SDS011;65202;52.520;10.528;2024-03-08T12:07:30;42.72;;;27.13;;
76380;SDS011;65202;52.520;10.528;2024-03-08T12:10:19;42.92;;;26.48;;
76380;SDS011;65202;52.520;10.528;2024-03-08T12:12:50;39.78;;;26.90;;
76380;SDS011;65202;52.520;10.528;2024-03-08T12:15:26;44.58;;;27.98;;
76380;SDS011;65202;52.520;10.528;2024-03-08T12:17:55;39.43;;;26.33;;
76380;SDS011;65202;52.520;10.528;2024-03-08T12:22:53;42.50;;;26.92;;
76380;SDS011;65202;52.520;10.528;2024-03-08T12:25:33;38.80;;;24.70;;
76380;SDS011;65202;52.520;10.528;2024-03-08T12:28:07;42.53;;;25.92;;
76380;SDS011;65202;52.520;10.528;2024-03-08T12:30:48;40.72;;;25.52;;
76380;SDS011;65202;52.520;10.528;2024-03-08T12:33:23;39.05;;;25.27;;
76380;SDS011;65202;52.520;10.528;2024-03-08T12:35:54;41.65;;;26.27;;
76380;SDS011;65202;52.520;10.528;2024-03-08T12:40:55;37.15;;;24.55;;
76380;SDS011;65202;52.520;10.528;2024-03-08T12:43:26;40.70;;;26.23;;
76380;SDS011;65202;52.520;10.528;2024-03-08T12:45:57;39.50;;;26.58;;
76380;SDS011;65202;52.520;10.528;2024-03-08T12:48:25;40.88;;;27.05;;
76380;SDS011;65202;52.520;10.528;2024-03-08T12:50:54;43.05;;;26.10;;
76380;SDS011;65202;52.520;10.528;2024-03-08T12:53:22;40.40;;;25.70;;
76380;SDS011;65202;52.520;10.528;2024-03-08T12:55:51;40.78;;;25.38;;
76380;SDS011;65202;52.520;10.528;2024-03-08T12:58:19;37.63;;;25.30;;
76380;SDS011;65202;52.520;10.528;2024-03-08T13:00:47;39.88;;;25.52;;
76380;SDS011;65202;52.520;10.528;2024-03-08T13:03:19;38.10;;;26.33;;
76380;SDS011;65202;52.520;10.528;2024-03-08T13:05:46;43.80;;;25.85;;
76380;SDS011;65202;52.520;10.528;2024-03-08T13:08:15;41.67;;;25.90;;
76380;SDS011;65202;52.520;10.528;2024-03-08T13:10:43;41.08;;;26.52;;
76380;SDS011;65202;52.520;10.528;2024-03-08T13:13:11;38.92;;;25.48;;
76380;SDS011;65202;52.520;10.528;2024-03-08T13:15:42;36.05;;;24.38;;
76380;SDS011;65202;52.520;10.528;2024-03-08T13:18:10;36.22;;;23.73;;
76380;SDS011;65202;52.520;10.528;2024-03-08T13:20:38;38.95;;;24.05;;
76380;SDS011;65202;52.520;10.528;2024-03-08T13:23:14;36.65;;;22.48;;
76380;SDS011;65202;52.520;10.528;2024-03-08T13:25:41;36.38;;;23.30;;
76380;SDS011;65202;52.520;10.528;2024-03-08T13:28:09;34.17;;;22.92;;
76380;SDS011;65202;52.520;10.528;2024-03-08T13:30:41;34.72;;;22.70;;
76380;SDS011;65202;52.520;10.528;2024-03-08T13:33:08;36.22;;;23.98;;
76380;SDS011;65202;52.520;10.528;2024-03-08T13:35:36;35.25;;;22.05;;
76380;SDS011;65202;52.520;10.528;2024-03-08T13:38:05;39.30;;;23.17;;
76380;SDS011;65202;52.520;10.528;2024-03-08T13:40:36;37.22;;;22.50;;
76380;SDS011;65202;52.520;10.528;2024-03-08T13:43:04;36.30;;;21.83;;
76380;SDS011;65202;52.520;10.528;2024-03-08T13:45:31;34.05;;;22.40;;
76380;SDS011;65202;52.520;10.528;2024-03-08T13:48:00;33.72;;;21.90;;
76380;SDS011;65202;52.520;10.528;2024-03-08T13:50:31;31.45;;;21.90;;
76380;SDS011;65202;52.520;10.528;2024-03-08T13:52:59;37.15;;;22.08;;
76380;SDS011;65202;52.520;10.528;2024-03-08T13:55:26;32.00;;;21.65;;
76380;SDS011;65202;52.520;10.528;2024-03-08T13:57:54;29.70;;;20.70;;
76380;SDS011;65202;52.520;10.528;2024-03-08T14:00:24;32.28;;;21.63;;
76380;SDS011;65202;52.520;10.528;2024-03-08T14:02:54;32.17;;;21.42;;
76380;SDS011;65202;52.520;10.528;2024-03-08T14:05:22;30.52;;;19.70;;
76380;SDS011;65202;52.520;10.528;2024-03-08T14:07:49;32.50;;;19.88;;
76380;SDS011;65202;52.520;10.528;2024-03-08T14:10:17;30.77;;;19.55;;
76380;SDS011;65202;52.520;10.528;2024-03-08T14:12:50;30.55;;;20.10;;
76380;SDS011;65202;52.520;10.528;2024-03-08T14:15:18;31.00;;;20.02;;
76380;SDS011;65202;52.520;10.528;2024-03-08T14:17:54;30.70;;;19.23;;
76380;SDS011;65202;52.520;10.528;2024-03-08T14:20:22;30.05;;;19.58;;
76380;SDS011;65202;52.520;10.528;2024-03-08T14:22:55;29.38;;;19.60;;
76380;SDS011;65202;52.520;10.528;2024-03-08T14:25:24;30.40;;;19.23;;
76380;SDS011;65202;52.520;10.528;2024-03-08T14:27:52;29.98;;;18.13;;
76380;SDS011;65202;52.520;10.528;2024-03-08T14:30:21;29.80;;;18.65;;
76380;SDS011;65202;52.520;10.528;2024-03-08T14:33:05;33.45;;;18.23;;
76380;SDS011;65202;52.520;10.528;2024-03-08T14:35:35;28.23;;;17.38;;
76380;SDS011;65202;52.520;10.528;2024-03-08T14:38:03;29.38;;;17.70;;
76380;SDS011;65202;52.520;10.528;2024-03-08T14:40:31;29.40;;;17.55;;